createdAt,value
2023-04-07T05:36:17.960Z,99.90
2023-04-07T05:41:13.740Z,99.90
2023-04-07T05:43:41.028Z,99.90
2023-04-07T05:46:08.329Z,99.90
2023-04-07T05:48:36.019Z,99.90
2023-04-07T05:51:03.230Z,99.90
2023-04-07T05:53:30.418Z,99.90
2023-04-07T05:55:57.560Z,99.90
2023-04-07T05:58:24.746Z,99.90
2023-04-07T06:00:52.112Z,99.90
2023-04-07T06:03:19.351Z,99.90
2023-04-07T06:05:47.265Z,99.90
2023-04-07T06:08:14.449Z,99.90
2023-04-07T06:10:41.732Z,99.90
2023-04-07T06:13:09.258Z,99.90
2023-04-07T06:15:36.438Z,99.90
2023-04-07T06:18:03.697Z,99.90
2023-04-07T06:20:31.234Z,99.90
2023-04-07T06:22:58.395Z,99.90
2023-04-07T06:25:25.471Z,99.90
2023-04-07T06:27:54.185Z,99.90
2023-04-07T06:30:21.384Z,99.90
2023-04-07T06:32:48.604Z,99.90
2023-04-07T06:35:16.157Z,99.90
2023-04-07T06:37:43.282Z,99.90
2023-04-07T06:40:10.537Z,99.90
2023-04-07T06:42:37.995Z,99.90
2023-04-07T06:45:05.836Z,99.90
2023-04-07T06:47:33.135Z,99.90
2023-04-07T06:50:00.378Z,99.90
2023-04-07T06:52:27.497Z,99.90
2023-04-07T06:54:54.608Z,99.90
2023-04-07T06:57:22.077Z,99.90
2023-04-07T06:59:49.198Z,99.90
2023-04-07T07:02:16.676Z,99.90
2023-04-07T07:04:43.956Z,99.90
2023-04-07T07:07:14.127Z,99.90
2023-04-07T07:09:41.301Z,99.90
2023-04-07T07:12:08.421Z,99.90
2023-04-07T07:14:35.581Z,99.90
2023-04-07T07:17:02.766Z,99.90
2023-04-07T07:19:30.117Z,99.90
2023-04-07T07:21:57.282Z,99.90
2023-04-07T07:24:24.412Z,99.90
2023-04-07T07:26:51.520Z,99.90
2023-04-07T07:29:18.637Z,99.90
2023-04-07T07:31:45.909Z,99.90
2023-04-07T07:34:13.013Z,99.90
2023-04-07T07:36:40.231Z,99.90
2023-04-07T07:39:07.924Z,99.60
2023-04-07T07:41:35.730Z,99.90
2023-04-07T07:44:03.008Z,99.90
2023-04-07T07:46:30.171Z,99.90
2023-04-07T07:48:57.326Z,98.80
2023-04-07T07:51:24.509Z,98.30
2023-04-07T07:53:52.641Z,97.80
2023-04-07T07:56:19.984Z,97.10
2023-04-07T07:58:47.360Z,97.60
2023-04-07T08:01:14.489Z,98.80
2023-04-07T08:03:42.123Z,98.40
2023-04-07T08:06:09.605Z,97.00
2023-04-07T08:08:37.027Z,97.00
2023-04-07T08:13:31.821Z,97.80
2023-04-07T08:15:59.009Z,98.40
2023-04-07T08:18:26.215Z,99.00
2023-04-07T08:20:53.778Z,99.40
2023-04-07T08:23:21.049Z,99.90
2023-04-07T08:25:48.196Z,99.90
2023-04-07T08:28:15.992Z,99.90
2023-04-07T08:30:43.187Z,99.90
2023-04-07T08:33:10.699Z,99.90
2023-04-07T08:35:37.863Z,99.90
2023-04-07T08:38:05.772Z,99.90
2023-04-07T08:40:33.670Z,99.30
2023-04-07T08:43:06.209Z,99.50
2023-04-07T08:45:34.490Z,98.90
2023-04-07T08:48:08.444Z,97.10
2023-04-07T08:50:36.359Z,97.20
2023-04-07T08:53:08.208Z,96.30
2023-04-07T08:55:36.532Z,95.90
2023-04-07T08:58:04.253Z,96.50
2023-04-07T09:00:31.875Z,94.90
2023-04-07T09:03:00.991Z,93.60
2023-04-07T09:05:29.693Z,94.80
2023-04-07T09:07:56.830Z,92.40
2023-04-07T09:10:23.982Z,92.50
2023-04-07T09:12:51.336Z,91.60
2023-04-07T09:15:19.112Z,92.10
2023-04-07T09:17:46.316Z,91.90
2023-04-07T09:20:13.523Z,93.90
2023-04-07T09:22:47.402Z,94.70
2023-04-07T09:25:28.160Z,96.00
2023-04-07T09:28:00.514Z,95.80
2023-04-07T09:30:29.588Z,96.90
2023-04-07T09:32:58.063Z,96.40
2023-04-07T09:35:27.601Z,98.30
2023-04-07T09:38:09.140Z,99.10
2023-04-07T09:40:37.529Z,99.40
2023-04-07T09:43:05.900Z,99.90
2023-04-07T09:48:21.629Z,99.90
2023-04-07T09:50:52.013Z,99.40
2023-04-07T09:53:20.188Z,99.90
2023-04-07T09:55:48.736Z,97.50
2023-04-07T09:58:16.998Z,97.90
2023-04-07T10:00:45.628Z,97.40
2023-04-07T10:03:13.450Z,98.50
2023-04-07T10:05:41.311Z,99.90
2023-04-07T10:08:09.975Z,99.90
2023-04-07T10:10:42.807Z,99.90
2023-04-07T10:13:10.148Z,99.40
2023-04-07T10:15:37.318Z,99.40
2023-04-07T10:18:07.335Z,99.90
2023-04-07T10:20:35.186Z,99.90
2023-04-07T10:23:11.922Z,98.80
2023-04-07T10:25:40.391Z,98.50
2023-04-07T10:28:12.647Z,98.00
2023-04-07T10:30:40.674Z,99.90
2023-04-07T10:33:07.990Z,96.70
2023-04-07T10:36:03.188Z,97.70
2023-04-07T10:38:31.725Z,97.20
2023-04-07T10:40:58.894Z,99.20
2023-04-07T10:43:42.178Z,99.00
2023-04-07T10:46:09.492Z,99.90
2023-04-07T10:48:36.754Z,99.60
2023-04-07T10:51:07.308Z,99.70
2023-04-07T10:53:34.999Z,97.50
2023-04-07T10:56:02.741Z,97.90
2023-04-07T10:58:31.468Z,99.20
2023-04-07T11:01:01.558Z,98.90
2023-04-07T11:03:30.773Z,99.90
2023-04-07T11:06:05.945Z,99.90
2023-04-07T11:08:38.311Z,98.80
2023-04-07T11:11:09.242Z,97.80
2023-04-07T11:13:47.440Z,98.60
2023-04-07T11:16:19.607Z,96.60
2023-04-07T11:18:48.031Z,97.10
2023-04-07T11:21:19.318Z,97.10
2023-04-07T11:23:47.655Z,98.10
2023-04-07T11:26:16.371Z,98.10
2023-04-07T11:29:01.984Z,97.50
2023-04-07T11:31:31.460Z,99.00
2023-04-07T11:34:02.123Z,98.50
2023-04-07T11:36:33.207Z,97.60
2023-04-07T11:39:02.201Z,97.90
2023-04-07T11:41:32.851Z,96.90
2023-04-07T11:44:11.682Z,96.70
2023-04-07T11:47:03.593Z,97.00
2023-04-07T11:49:31.852Z,98.20
2023-04-07T11:52:08.859Z,97.30
2023-04-07T11:54:47.239Z,96.80
2023-04-07T11:57:14.993Z,97.00
2023-04-07T11:59:42.335Z,98.10
2023-04-07T12:02:09.941Z,97.90
2023-04-07T12:04:40.138Z,97.10
2023-04-07T12:07:09.309Z,97.40
2023-04-07T12:09:37.642Z,97.00
2023-04-07T12:12:07.506Z,99.90
2023-04-07T12:14:35.570Z,95.50
2023-04-07T12:17:03.875Z,96.70
2023-04-07T12:19:34.844Z,96.70
2023-04-07T12:22:02.121Z,97.30
2023-04-07T12:24:29.225Z,96.50
2023-04-07T12:26:56.592Z,97.70
2023-04-07T12:29:24.109Z,98.90
2023-04-07T12:31:51.573Z,99.90
2023-04-07T12:34:19.165Z,99.90
2023-04-07T12:36:46.326Z,99.90
2023-04-07T12:39:13.802Z,99.90
2023-04-07T12:44:09.703Z,99.90
2023-04-07T12:46:36.839Z,99.80
2023-04-07T12:49:04.031Z,99.30
2023-04-07T12:51:33.403Z,99.20
2023-04-07T12:54:00.895Z,99.90
2023-04-07T12:56:28.721Z,98.70
2023-04-07T13:01:23.462Z,98.80
2023-04-07T13:03:51.426Z,99.90
2023-04-07T13:06:19.244Z,99.90
2023-04-07T13:08:46.438Z,99.90
2023-04-07T13:11:13.720Z,99.90
2023-04-07T13:13:40.831Z,99.50
2023-04-07T13:16:08.371Z,99.10
2023-04-07T13:18:36.602Z,99.70
2023-04-07T13:23:42.923Z,99.90
2023-04-07T13:26:11.551Z,99.90
2023-04-07T13:28:39.072Z,99.90
2023-04-07T13:31:06.548Z,99.90
2023-04-07T13:33:34.892Z,99.90
2023-04-07T13:36:02.059Z,99.90
2023-04-07T13:38:29.322Z,99.90
2023-04-07T13:40:56.467Z,99.90
2023-04-07T13:43:23.624Z,99.90
2023-04-07T13:45:50.897Z,99.90
2023-04-07T13:48:18.280Z,99.90
2023-04-07T13:50:45.671Z,99.90
2023-04-07T13:53:12.872Z,99.90
2023-04-07T13:55:40.034Z,99.90
2023-04-07T13:58:07.307Z,99.90
2023-04-07T14:00:35.783Z,99.90
2023-04-07T14:03:04.354Z,99.90
2023-04-07T14:05:31.785Z,99.90
2023-04-07T14:07:58.923Z,99.90
2023-04-07T14:10:26.236Z,99.90
2023-04-07T14:12:53.341Z,99.90
2023-04-07T14:15:20.721Z,99.90
2023-04-07T14:17:47.895Z,99.90
2023-04-07T14:20:15.055Z,99.90
2023-04-07T14:25:10.411Z,99.90
2023-04-07T14:27:37.781Z,99.90
2023-04-07T14:30:05.548Z,99.90
2023-04-07T14:32:34.336Z,99.90
2023-04-07T14:35:01.936Z,99.90
2023-04-07T14:37:29.563Z,99.90
2023-04-07T14:42:29.642Z,99.90
2023-04-07T14:44:57.246Z,99.90
2023-04-07T14:47:24.442Z,99.90
2023-04-07T14:49:53.526Z,99.90
2023-04-07T14:52:24.611Z,99.90
2023-04-07T14:54:51.756Z,99.90
2023-04-07T14:57:18.973Z,99.90
2023-04-07T14:59:47.082Z,99.90
2023-04-07T15:02:14.324Z,99.90
2023-04-07T15:04:41.922Z,99.90
2023-04-07T15:07:09.213Z,99.90
2023-04-07T15:09:36.349Z,99.90
2023-04-07T15:12:05.078Z,99.90
2023-04-07T15:14:32.242Z,99.90
2023-04-07T15:16:59.395Z,99.90
2023-04-07T15:19:26.493Z,99.90
2023-04-07T15:21:53.640Z,99.90
2023-04-07T15:24:22.163Z,99.90
2023-04-07T15:26:49.690Z,99.90
2023-04-07T15:29:16.845Z,99.90
2023-04-07T15:31:44.070Z,99.90
2023-04-07T15:34:12.739Z,99.90
2023-04-07T15:36:40.329Z,99.90
2023-04-07T15:39:07.483Z,99.90
2023-04-07T15:41:34.675Z,99.90
2023-04-07T15:44:03.303Z,99.90
2023-04-07T15:46:32.337Z,99.90
2023-04-07T15:49:00.126Z,99.90
2023-04-07T15:51:27.675Z,99.90
2023-04-07T15:53:54.873Z,99.90
2023-04-07T15:56:24.597Z,99.90
2023-04-07T15:58:52.356Z,99.90
